Leicester, New York
Current Conditions -  °F | °C
As of 2:54 PM on Wednesday 17 Dec 2014 (Local Time) from KDSV Reporting Station
Overcast Overcast  
Wind Chill: 31°   Ceiling: 4200
Heat Index: 38°   Visibility: 10mi
Dew Point: 27°   Wind: 9mph
Humidity: 65%   Direction: 270°W
Pressure: 29.91"   Gusts: 25mph
Location:  42.77°N, 77.9°W
Report Text: KDSV 171954Z AUTO 27008G22KT 10SM FEW030 BKN042 OVC050 03/M03 A2991 RMK AO2 SLP142 T00331028
Loading
Personal Weather Stations






























Interactive Weather Map New forecast layout! Learn more

10-Day Weather Forecast

Advertisements
Track Severe Weather on mobile